Time;durP1;ratioP1;P1;durP2;ratioP2;P2;SDS_P1;SDS_P2;PMS_P1;PMS_P2;Temp;Humidity;BMP_temperature;BMP_pressure;BME280_temperature;BME280_humidity;BME280_pressure;Samples;Min_cycle;Max_cycle;Signal;HPM_P1;HPM_P2
2022/01/06 00:02:15;;;;;;;;;;;21.20;43.80;;;;;;5091414;28;19919;-64
2022/01/06 00:04:42;;;;;;;;;;;21.20;43.80;;;;;;5091842;28;19959;-64
2022/01/06 00:07:07;;;;;;;;;;;21.10;43.70;;;;;;5089755;28;19916;-64
2022/01/06 00:09:33;;;;;;;;;;;21.20;43.80;;;;;;5089794;28;19913;-64
2022/01/06 00:11:58;;;;;;;;;;;21.10;43.60;;;;;;5090990;28;19962;-64
2022/01/06 00:17:58;;;;;;;;;;;21.10;43.50;;;;;;5070308;28;20042;-64
2022/01/06 00:25:29;;;;;;;;;;;21.00;43.80;;;;;;5091874;28;20348;-64
2022/01/06 00:27:55;;;;;;;;;;;21.00;43.90;;;;;;5091292;28;20015;-65
2022/01/06 00:30:20;;;;;;;;;;;21.00;43.90;;;;;;5091980;28;19912;-64
2022/01/06 00:32:46;;;;;;;;;;;21.00;43.90;;;;;;5090041;28;19947;-64
2022/01/06 00:35:11;;;;;;;;;;;21.00;43.90;;;;;;5091825;28;19912;-64
2022/01/06 00:37:37;;;;;;;;;;;20.90;43.90;;;;;;5091103;28;19916;-64
2022/01/06 00:40:02;;;;;;;;;;;20.90;44.00;;;;;;5091477;28;19908;-64
2022/01/06 00:42:28;;;;;;;;;;;20.90;44.00;;;;;;5086509;28;20291;-64
2022/01/06 00:44:53;;;;;;;;;;;20.90;44.00;;;;;;5091833;28;19912;-64
2022/01/06 00:47:20;;;;;;;;;;;20.90;43.90;;;;;;5078619;28;19908;-64
2022/01/06 00:49:46;;;;;;;;;;;20.90;43.90;;;;;;5091903;28;19965;-64
2022/01/06 00:52:12;;;;;;;;;;;20.90;44.00;;;;;;5090718;28;19912;-64
2022/01/06 00:54:38;;;;;;;;;;;20.90;44.00;;;;;;5090198;28;19920;-64
2022/01/06 00:57:04;;;;;;;;;;;20.80;43.90;;;;;;5091666;28;19913;-64
2022/01/06 00:59:29;;;;;;;;;;;20.90;44.00;;;;;;5103689;28;19912;-64
2022/01/06 01:01:55;;;;;;;;;;;20.80;43.90;;;;;;5090029;28;20466;-64
2022/01/06 01:04:20;;;;;;;;;;;20.80;43.90;;;;;;5090660;28;19912;-64
2022/01/06 01:06:46;;;;;;;;;;;20.80;43.90;;;;;;5123895;28;19978;-64
2022/01/06 01:09:11;;;;;;;;;;;20.80;43.90;;;;;;5083122;28;20007;-64
2022/01/06 01:11:38;;;;;;;;;;;20.80;43.90;;;;;;5074823;28;19908;-64
2022/01/06 01:14:26;;;;;;;;;;;20.80;44.00;;;;;;5078630;28;19924;-64
2022/01/06 01:16:55;;;;;;;;;;;20.80;44.00;;;;;;5096311;28;20326;-64
2022/01/06 01:19:21;;;;;;;;;;;20.80;43.80;;;;;;5088219;28;19916;-63
2022/01/06 01:21:46;;;;;;;;;;;20.80;43.80;;;;;;5091408;28;20283;-64
2022/01/06 01:24:12;;;;;;;;;;;20.80;43.80;;;;;;5090433;28;19919;-64
2022/01/06 01:26:37;;;;;;;;;;;20.80;43.80;;;;;;5090160;28;20371;-64
2022/01/06 01:29:03;;;;;;;;;;;20.80;43.90;;;;;;5090781;28;20352;-64
2022/01/06 01:31:35;;;;;;;;;;;20.80;43.80;;;;;;5091298;28;20384;-64
2022/01/06 01:34:08;;;;;;;;;;;20.80;43.80;;;;;;5096978;28;19923;-64
2022/01/06 01:36:33;;;;;;;;;;;20.80;43.80;;;;;;5070307;28;20013;-64
2022/01/06 01:38:59;;;;;;;;;;;20.80;44.00;;;;;;5074397;28;20251;-64
2022/01/06 01:41:24;;;;;;;;;;;20.80;44.00;;;;;;5088774;28;20303;-64
2022/01/06 01:43:50;;;;;;;;;;;20.80;44.10;;;;;;5091188;28;19922;-64
2022/01/06 01:46:19;;;;;;;;;;;20.70;43.90;;;;;;5090763;28;20265;-64
2022/01/06 01:48:58;;;;;;;;;;;20.80;44.00;;;;;;5090609;28;19990;-64
2022/01/06 01:51:23;;;;;;;;;;;20.70;43.80;;;;;;5075113;28;19939;-64
2022/01/06 01:53:48;;;;;;;;;;;20.70;43.80;;;;;;5093699;28;19958;-64
2022/01/06 01:56:14;;;;;;;;;;;20.70;43.90;;;;;;5126997;27;19925;-64
2022/01/06 01:58:40;;;;;;;;;;;20.70;43.80;;;;;;5093525;28;19927;-64
2022/01/06 02:01:06;;;;;;;;;;;20.70;43.80;;;;;;5094637;28;19908;-64
2022/01/06 02:03:31;;;;;;;;;;;20.70;43.90;;;;;;5093312;28;19916;-64
2022/01/06 02:05:57;;;;;;;;;;;20.70;43.80;;;;;;5088486;28;20003;-64
2022/01/06 02:08:22;;;;;;;;;;;20.70;43.80;;;;;;5093529;28;20373;-65
2022/01/06 02:10:48;;;;;;;;;;;20.70;43.80;;;;;;5092511;28;19908;-64
2022/01/06 02:13:15;;;;;;;;;;;20.70;43.80;;;;;;5094161;28;20008;-64
2022/01/06 02:15:40;;;;;;;;;;;20.70;43.80;;;;;;5093949;28;19920;-64
2022/01/06 02:18:06;;;;;;;;;;;20.70;43.90;;;;;;5075342;28;19973;-64
2022/01/06 02:20:31;;;;;;;;;;;20.70;43.80;;;;;;5094010;28;19978;-64
2022/01/06 02:22:57;;;;;;;;;;;20.60;43.70;;;;;;5125148;27;19957;-64
2022/01/06 02:25:27;;;;;;;;;;;20.60;43.80;;;;;;5109784;28;19916;-64
2022/01/06 02:27:53;;;;;;;;;;;20.60;43.70;;;;;;5091689;28;20011;-64
2022/01/06 02:30:19;;;;;;;;;;;20.70;43.60;;;;;;5092373;28;19999;-64
2022/01/06 02:32:44;;;;;;;;;;;20.80;43.30;;;;;;5078825;28;19919;-64
2022/01/06 02:35:14;;;;;;;;;;;20.90;43.20;;;;;;5081974;28;19916;-64
2022/01/06 02:37:39;;;;;;;;;;;21.00;43.00;;;;;;5092386;28;20006;-65
2022/01/06 02:40:05;;;;;;;;;;;21.20;42.70;;;;;;5091664;28;19951;-64
2022/01/06 02:42:32;;;;;;;;;;;21.40;42.50;;;;;;5091222;28;19920;-64
2022/01/06 02:44:57;;;;;;;;;;;21.60;42.20;;;;;;5092488;28;19924;-64
2022/01/06 02:47:22;;;;;;;;;;;21.70;42.00;;;;;;5092387;28;20000;-64
2022/01/06 02:49:48;;;;;;;;;;;21.90;41.70;;;;;;5125940;27;19923;-64
2022/01/06 02:52:13;;;;;;;;;;;22.00;41.60;;;;;;5093630;27;20034;-64
2022/01/06 02:54:39;;;;;;;;;;;22.00;41.40;;;;;;5087343;28;19916;-64
2022/01/06 02:57:04;;;;;;;;;;;22.10;41.30;;;;;;5093466;28;20006;-64
2022/01/06 02:59:30;;;;;;;;;;;22.20;41.10;;;;;;5093061;28;19920;-64
2022/01/06 03:01:55;;;;;;;;;;;22.30;40.90;;;;;;5090804;28;20307;-64
2022/01/06 03:04:23;;;;;;;;;;;22.30;40.90;;;;;;5082571;28;19912;-64
2022/01/06 03:06:49;;;;;;;;;;;22.40;40.90;;;;;;5091678;28;19916;-64
2022/01/06 03:09:14;;;;;;;;;;;22.40;40.80;;;;;;5092685;28;20407;-64
2022/01/06 03:11:43;;;;;;;;;;;22.40;40.80;;;;;;5104069;28;20343;-64
2022/01/06 03:14:08;;;;;;;;;;;22.40;40.80;;;;;;5092625;28;20189;-64
2022/01/06 03:16:34;;;;;;;;;;;22.40;40.70;;;;;;5090752;28;19916;-64
2022/01/06 03:18:59;;;;;;;;;;;22.40;40.80;;;;;;5091996;28;20288;-64
2022/01/06 03:21:25;;;;;;;;;;;22.40;40.70;;;;;;5092695;28;19963;-64
2022/01/06 03:23:50;;;;;;;;;;;22.40;40.80;;;;;;5092059;28;19916;-64
2022/01/06 03:26:15;;;;;;;;;;;22.50;40.70;;;;;;5092644;28;19912;-64
2022/01/06 03:28:41;;;;;;;;;;;22.40;40.60;;;;;;5092612;28;19908;-65
2022/01/06 03:31:06;;;;;;;;;;;22.40;40.70;;;;;;5090779;28;20379;-64
2022/01/06 03:33:32;;;;;;;;;;;22.40;40.70;;;;;;5092297;28;19923;-64
2022/01/06 03:35:57;;;;;;;;;;;22.40;40.70;;;;;;5092208;28;19919;-64
2022/01/06 03:38:23;;;;;;;;;;;22.50;40.80;;;;;;5091490;28;19922;-64
2022/01/06 03:40:48;;;;;;;;;;;22.40;40.60;;;;;;5091179;28;20500;-64
2022/01/06 03:43:13;;;;;;;;;;;22.50;40.60;;;;;;5090532;28;20394;-64
2022/01/06 03:45:39;;;;;;;;;;;22.50;40.60;;;;;;5083521;28;19920;-64
2022/01/06 03:48:04;;;;;;;;;;;22.50;40.50;;;;;;5091675;28;19964;-64
2022/01/06 03:50:30;;;;;;;;;;;22.50;40.50;;;;;;5094185;28;19935;-64
2022/01/06 03:52:56;;;;;;;;;;;22.50;40.50;;;;;;5091563;28;20374;-64
2022/01/06 03:55:21;;;;;;;;;;;22.50;40.50;;;;;;5090668;28;19912;-64
2022/01/06 03:57:47;;;;;;;;;;;22.50;40.50;;;;;;5090557;28;19920;-64
2022/01/06 04:00:22;;;;;;;;;;;22.50;40.50;;;;;;5092697;28;19919;-64
2022/01/06 04:02:47;;;;;;;;;;;22.50;40.50;;;;;;5091684;28;20257;-64
2022/01/06 04:05:13;;;;;;;;;;;22.60;40.60;;;;;;5090537;28;19918;-64
2022/01/06 04:07:38;;;;;;;;;;;22.60;40.50;;;;;;5089696;28;19962;-64
2022/01/06 04:10:04;;;;;;;;;;;22.50;40.40;;;;;;5091771;28;19920;-64
2022/01/06 04:12:33;;;;;;;;;;;22.50;40.40;;;;;;5092405;28;19912;-65
2022/01/06 04:14:59;;;;;;;;;;;22.50;40.50;;;;;;5091193;28;19920;-64
2022/01/06 04:17:25;;;;;;;;;;;22.50;40.60;;;;;;5096557;28;19927;-64
2022/01/06 04:19:50;;;;;;;;;;;22.40;40.80;;;;;;5091671;28;20153;-64
2022/01/06 04:22:16;;;;;;;;;;;22.30;40.90;;;;;;5090656;28;20003;-64
2022/01/06 04:24:42;;;;;;;;;;;22.20;40.90;;;;;;5091446;28;19931;-64
2022/01/06 04:27:07;;;;;;;;;;;22.10;40.90;;;;;;5090231;28;19912;-64
2022/01/06 04:29:32;;;;;;;;;;;22.10;41.00;;;;;;5091298;28;19920;-64
2022/01/06 04:31:58;;;;;;;;;;;22.10;41.10;;;;;;5090421;28;20457;-64
2022/01/06 04:34:23;;;;;;;;;;;22.20;41.10;;;;;;5092490;28;19916;-65
2022/01/06 04:36:53;;;;;;;;;;;22.20;40.90;;;;;;5089543;28;19928;-64
2022/01/06 04:39:19;;;;;;;;;;;22.30;40.90;;;;;;5085969;28;19917;-64
2022/01/06 04:41:44;;;;;;;;;;;22.30;40.90;;;;;;5087602;28;19916;-65
2022/01/06 04:44:10;;;;;;;;;;;22.40;40.80;;;;;;5091517;28;20094;-64
2022/01/06 04:46:35;;;;;;;;;;;22.40;40.80;;;;;;5090464;28;19920;-64
2022/01/06 04:49:00;;;;;;;;;;;22.40;40.60;;;;;;5091334;28;19952;-64
2022/01/06 04:51:26;;;;;;;;;;;22.50;40.60;;;;;;5093514;28;20002;-64
2022/01/06 04:53:52;;;;;;;;;;;22.50;40.60;;;;;;5090035;28;19965;-64
2022/01/06 04:56:17;;;;;;;;;;;22.50;40.60;;;;;;5091751;28;19908;-64
2022/01/06 04:58:43;;;;;;;;;;;22.50;40.80;;;;;;5091105;28;19916;-64
2022/01/06 05:01:08;;;;;;;;;;;22.50;40.60;;;;;;5089610;28;19917;-64
2022/01/06 05:03:33;;;;;;;;;;;22.50;40.60;;;;;;5089873;28;19920;-64
2022/01/06 05:05:59;;;;;;;;;;;22.50;40.70;;;;;;5091425;28;19920;-64
2022/01/06 05:08:26;;;;;;;;;;;22.50;40.60;;;;;;5090294;28;19912;-64
2022/01/06 05:10:52;;;;;;;;;;;22.50;40.60;;;;;;5091506;28;19919;-64
2022/01/06 05:13:17;;;;;;;;;;;22.50;40.50;;;;;;5091082;28;19912;-64
2022/01/06 05:15:42;;;;;;;;;;;22.50;40.60;;;;;;5091508;28;20287;-64
2022/01/06 05:18:08;;;;;;;;;;;22.50;40.60;;;;;;5090231;28;20379;-64
2022/01/06 05:20:37;;;;;;;;;;;22.50;40.50;;;;;;5090820;28;19916;-64
2022/01/06 05:23:02;;;;;;;;;;;22.50;40.60;;;;;;5099024;28;20213;-64
2022/01/06 05:25:30;;;;;;;;;;;22.50;40.60;;;;;;5080697;28;19947;-64
2022/01/06 05:27:55;;;;;;;;;;;22.50;40.60;;;;;;5090010;28;19936;-64
2022/01/06 05:30:21;;;;;;;;;;;22.50;41.30;;;;;;5127118;27;19916;-64
2022/01/06 05:32:46;;;;;;;;;;;22.50;40.60;;;;;;5088917;28;20368;-64
2022/01/06 05:35:12;;;;;;;;;;;22.50;40.60;;;;;;5095016;28;19924;-64
2022/01/06 05:37:37;;;;;;;;;;;22.50;40.60;;;;;;5092603;28;19918;-64
2022/01/06 05:40:03;;;;;;;;;;;22.50;40.60;;;;;;5093367;28;19912;-64
2022/01/06 05:42:28;;;;;;;;;;;22.50;40.50;;;;;;5090911;28;20015;-64
2022/01/06 05:44:54;;;;;;;;;;;22.50;40.50;;;;;;5093354;28;20352;-64
2022/01/06 05:47:19;;;;;;;;;;;22.50;40.50;;;;;;5094688;28;20294;-64
2022/01/06 05:49:45;;;;;;;;;;;22.50;40.50;;;;;;5093217;28;19912;-64
2022/01/06 05:52:10;;;;;;;;;;;22.60;40.50;;;;;;5095141;28;20014;-64
2022/01/06 05:54:36;;;;;;;;;;;22.60;40.50;;;;;;5094534;28;19908;-64
2022/01/06 05:57:01;;;;;;;;;;;22.60;40.40;;;;;;5093594;28;19969;-64
2022/01/06 05:59:29;;;;;;;;;;;22.60;40.50;;;;;;5094646;28;19965;-64
2022/01/06 06:01:54;;;;;;;;;;;22.60;40.50;;;;;;5094282;28;19916;-64
2022/01/06 06:04:20;;;;;;;;;;;22.50;40.40;;;;;;5090640;28;20370;-64
2022/01/06 06:06:45;;;;;;;;;;;22.50;40.50;;;;;;5117134;27;20002;-64
2022/01/06 06:09:11;;;;;;;;;;;22.60;40.40;;;;;;5075772;28;19916;-64
2022/01/06 06:11:36;;;;;;;;;;;22.60;40.40;;;;;;5092574;28;19919;-64
2022/01/06 06:14:02;;;;;;;;;;;22.60;40.40;;;;;;5094130;28;19924;-64
2022/01/06 06:16:27;;;;;;;;;;;22.60;40.50;;;;;;5094043;28;19912;-64
2022/01/06 06:18:53;;;;;;;;;;;22.50;40.30;;;;;;5092703;28;19923;-64
2022/01/06 06:21:18;;;;;;;;;;;22.50;40.40;;;;;;5091663;28;19920;-64
2022/01/06 06:23:44;;;;;;;;;;;22.50;40.50;;;;;;5090823;28;19916;-64
2022/01/06 06:26:09;;;;;;;;;;;22.50;40.50;;;;;;5094474;28;19908;-64
2022/01/06 06:28:35;;;;;;;;;;;22.50;40.40;;;;;;5097408;28;19911;-64
2022/01/06 06:31:00;;;;;;;;;;;22.50;40.40;;;;;;5098338;28;19942;-64
2022/01/06 06:33:26;;;;;;;;;;;22.50;40.40;;;;;;5093527;28;19912;-64
2022/01/06 06:35:51;;;;;;;;;;;22.60;40.40;;;;;;5094308;28;19913;-65
2022/01/06 06:38:16;;;;;;;;;;;22.60;40.40;;;;;;5092145;28;19961;-65
2022/01/06 06:40:42;;;;;;;;;;;22.60;41.00;;;;;;5092961;28;19916;-64
2022/01/06 06:43:11;;;;;;;;;;;22.60;40.30;;;;;;5080372;28;20288;-64
2022/01/06 06:45:37;;;;;;;;;;;22.60;40.30;;;;;;5093729;28;20344;-64
2022/01/06 06:48:02;;;;;;;;;;;22.60;40.30;;;;;;5093513;28;19920;-64
2022/01/06 06:50:28;;;;;;;;;;;22.60;40.20;;;;;;5095181;28;19912;-64
2022/01/06 06:52:53;;;;;;;;;;;22.60;40.20;;;;;;5092466;28;19916;-64
2022/01/06 06:55:19;;;;;;;;;;;22.60;40.20;;;;;;5093213;28;19916;-64
2022/01/06 06:57:44;;;;;;;;;;;22.60;40.20;;;;;;5092645;28;20015;-64
2022/01/06 07:00:10;;;;;;;;;;;22.50;40.30;;;;;;5092580;28;19919;-64
2022/01/06 07:02:35;;;;;;;;;;;22.50;40.30;;;;;;5091353;28;20284;-64
2022/01/06 07:05:01;;;;;;;;;;;22.50;40.30;;;;;;5072286;28;20491;-64
2022/01/06 07:07:26;;;;;;;;;;;22.60;40.40;;;;;;5054416;28;19919;-64
2022/01/06 07:09:52;;;;;;;;;;;22.50;40.30;;;;;;5078506;28;19919;-64
2022/01/06 07:12:17;;;;;;;;;;;22.50;40.30;;;;;;5092724;28;20308;-64
2022/01/06 07:14:43;;;;;;;;;;;22.50;40.30;;;;;;5125161;27;19916;-64
2022/01/06 07:17:08;;;;;;;;;;;22.50;40.20;;;;;;5081348;28;19924;-64
2022/01/06 07:19:34;;;;;;;;;;;22.60;40.30;;;;;;5092379;28;19922;-64
2022/01/06 07:21:59;;;;;;;;;;;22.60;40.30;;;;;;5092225;28;19913;-64
2022/01/06 07:24:24;;;;;;;;;;;22.60;40.20;;;;;;5089671;28;19919;-64
2022/01/06 07:26:50;;;;;;;;;;;22.60;40.10;;;;;;5107746;28;20208;-64
2022/01/06 07:29:15;;;;;;;;;;;22.60;40.20;;;;;;5091574;28;20315;-64
2022/01/06 07:31:41;;;;;;;;;;;22.60;40.20;;;;;;5091973;28;20399;-64
2022/01/06 07:34:06;;;;;;;;;;;22.60;40.20;;;;;;5092186;28;19935;-64
2022/01/06 07:36:32;;;;;;;;;;;22.60;40.20;;;;;;5092480;28;19912;-64
2022/01/06 07:38:57;;;;;;;;;;;22.60;40.10;;;;;;5090631;28;20010;-64
2022/01/06 07:41:23;;;;;;;;;;;22.60;40.30;;;;;;5092151;28;19973;-64
2022/01/06 07:43:48;;;;;;;;;;;22.60;40.20;;;;;;5082561;28;20427;-64
2022/01/06 07:46:14;;;;;;;;;;;22.60;40.30;;;;;;5091449;28;20407;-64
2022/01/06 07:48:55;;;;;;;;;;;22.50;40.20;;;;;;5091877;28;20276;-64
2022/01/06 07:51:24;;;;;;;;;;;22.60;40.30;;;;;;5093242;28;19916;-64
2022/01/06 07:53:50;;;;;;;;;;;22.60;40.20;;;;;;5091242;28;19913;-64
2022/01/06 07:56:15;;;;;;;;;;;22.60;40.20;;;;;;5091788;28;19912;-64
2022/01/06 07:58:41;;;;;;;;;;;22.60;40.20;;;;;;5090154;28;19927;-64
2022/01/06 08:01:06;;;;;;;;;;;22.60;40.20;;;;;;5090726;28;19951;-65
2022/01/06 08:03:32;;;;;;;;;;;22.60;40.30;;;;;;5080849;28;19917;-65
2022/01/06 08:05:57;;;;;;;;;;;22.60;40.30;;;;;;5080336;28;19917;-64
2022/01/06 08:08:23;;;;;;;;;;;22.50;40.20;;;;;;5085184;28;20340;-64
2022/01/06 08:10:48;;;;;;;;;;;22.60;40.20;;;;;;5090041;28;20371;-64
2022/01/06 08:13:14;;;;;;;;;;;22.60;40.20;;;;;;5090488;28;20008;-64
2022/01/06 08:15:39;;;;;;;;;;;22.60;40.30;;;;;;5091622;28;20403;-64
2022/01/06 08:18:06;;;;;;;;;;;22.60;40.20;;;;;;5091280;28;21240;-64
2022/01/06 08:20:32;;;;;;;;;;;22.60;40.30;;;;;;5091530;28;20006;-65
2022/01/06 08:22:57;;;;;;;;;;;22.60;40.30;;;;;;5086844;28;19947;-64
2022/01/06 08:25:22;;;;;;;;;;;22.60;40.30;;;;;;5089846;28;19912;-64
2022/01/06 08:27:48;;;;;;;;;;;22.60;40.30;;;;;;5091254;28;20000;-65
2022/01/06 08:30:13;;;;;;;;;;;22.60;40.30;;;;;;5091770;28;19912;-65
2022/01/06 08:32:39;;;;;;;;;;;22.60;40.20;;;;;;5090891;28;19912;-65
2022/01/06 08:35:04;;;;;;;;;;;22.60;40.20;;;;;;5089908;28;19943;-65
2022/01/06 08:37:30;;;;;;;;;;;22.60;40.20;;;;;;5076657;28;19916;-64
2022/01/06 08:39:55;;;;;;;;;;;22.60;40.80;;;;;;5083889;28;19912;-64
2022/01/06 08:42:21;;;;;;;;;;;22.60;40.20;;;;;;5089417;28;20286;-64
2022/01/06 08:44:46;;;;;;;;;;;22.50;40.20;;;;;;5083691;28;19912;-64
2022/01/06 08:47:12;;;;;;;;;;;22.60;40.30;;;;;;5088029;28;19952;-64
2022/01/06 08:49:37;;;;;;;;;;;22.60;40.30;;;;;;5100713;28;19919;-64
2022/01/06 08:52:03;;;;;;;;;;;22.60;40.30;;;;;;5090472;28;19912;-64
2022/01/06 08:54:28;;;;;;;;;;;22.60;40.30;;;;;;5093387;28;19912;-64
2022/01/06 08:56:54;;;;;;;;;;;22.60;40.30;;;;;;5089045;28;19920;-64
2022/01/06 08:59:19;;;;;;;;;;;22.60;40.40;;;;;;5085546;28;19992;-64
2022/01/06 09:01:45;;;;;;;;;;;22.60;40.40;;;;;;5088961;28;20395;-64
2022/01/06 09:04:10;;;;;;;;;;;22.60;40.30;;;;;;5088964;28;20296;-64
2022/01/06 09:06:35;;;;;;;;;;;22.60;40.30;;;;;;5091071;28;19918;-64
2022/01/06 09:09:01;;;;;;;;;;;22.60;40.30;;;;;;5089212;28;19920;-64
2022/01/06 09:11:26;;;;;;;;;;;22.60;40.40;;;;;;5090696;28;19918;-65
2022/01/06 09:13:52;;;;;;;;;;;22.60;40.40;;;;;;5089677;28;19912;-64
2022/01/06 09:16:17;;;;;;;;;;;22.60;40.40;;;;;;5093073;28;19916;-64
2022/01/06 09:18:43;;;;;;;;;;;22.60;40.30;;;;;;5087481;28;20406;-64
2022/01/06 09:21:08;;;;;;;;;;;22.70;40.40;;;;;;5081836;28;19916;-64
2022/01/06 09:23:34;;;;;;;;;;;22.70;40.40;;;;;;5091517;28;19916;-64
2022/01/06 09:25:59;;;;;;;;;;;22.70;40.40;;;;;;5090607;28;19912;-66
2022/01/06 09:28:25;;;;;;;;;;;22.70;40.30;;;;;;5092534;28;19912;-65
2022/01/06 09:30:51;;;;;;;;;;;22.70;40.30;;;;;;5074625;28;19920;-64
2022/01/06 09:33:18;;;;;;;;;;;22.80;40.40;;;;;;5126028;27;19913;-64
2022/01/06 09:35:44;;;;;;;;;;;22.70;40.30;;;;;;5119896;27;19915;-65
2022/01/06 09:38:10;;;;;;;;;;;22.80;40.40;;;;;;5091803;28;20014;-65
2022/01/06 09:40:35;;;;;;;;;;;22.80;40.40;;;;;;5089737;28;19927;-64
2022/01/06 09:43:00;;;;;;;;;;;22.80;40.30;;;;;;5088074;28;19986;-64
2022/01/06 09:45:26;;;;;;;;;;;22.80;40.30;;;;;;5084580;28;19912;-65
2022/01/06 09:47:52;;;;;;;;;;;22.80;40.30;;;;;;5089339;28;19919;-64
2022/01/06 09:50:17;;;;;;;;;;;22.80;40.30;;;;;;5097019;28;19915;-64
2022/01/06 09:52:43;;;;;;;;;;;22.80;40.20;;;;;;5079230;28;19916;-65
2022/01/06 09:55:08;;;;;;;;;;;22.90;40.30;;;;;;5086689;28;19912;-64
2022/01/06 09:57:34;;;;;;;;;;;22.80;40.20;;;;;;5093529;28;19927;-64
2022/01/06 10:00:00;;;;;;;;;;;22.90;40.30;;;;;;5091587;28;20260;-64
2022/01/06 10:02:32;;;;;;;;;;;22.90;40.30;;;;;;5127655;27;20279;-64
2022/01/06 10:04:58;;;;;;;;;;;22.90;40.30;;;;;;5088637;28;19926;-65
2022/01/06 10:07:23;;;;;;;;;;;22.90;40.30;;;;;;5093169;28;19995;-64
2022/01/06 10:09:49;;;;;;;;;;;22.90;40.30;;;;;;5092218;28;19923;-65
2022/01/06 10:12:15;;;;;;;;;;;22.90;40.30;;;;;;5085490;28;19928;-64
2022/01/06 10:14:43;;;;;;;;;;;22.80;40.30;;;;;;5085704;28;19988;-64
2022/01/06 10:17:13;;;;;;;;;;;22.90;40.20;;;;;;5089738;28;19920;-64
2022/01/06 10:19:40;;;;;;;;;;;22.80;40.20;;;;;;5087888;28;20364;-64
2022/01/06 10:22:18;;;;;;;;;;;22.90;40.30;;;;;;5084054;28;20218;-64
2022/01/06 10:24:44;;;;;;;;;;;22.90;40.40;;;;;;5093466;28;19912;-64
2022/01/06 10:27:10;;;;;;;;;;;22.90;40.30;;;;;;5091872;28;20115;-65
2022/01/06 10:29:40;;;;;;;;;;;22.90;40.40;;;;;;5092769;28;20041;-64
2022/01/06 10:32:06;;;;;;;;;;;22.90;40.30;;;;;;5085904;28;20288;-66
2022/01/06 10:34:32;;;;;;;;;;;22.90;40.40;;;;;;5082941;28;19920;-65
2022/01/06 10:36:58;;;;;;;;;;;22.90;40.40;;;;;;5092807;28;19931;-65
2022/01/06 10:39:23;;;;;;;;;;;22.90;40.40;;;;;;5091156;28;19919;-65
2022/01/06 10:41:49;;;;;;;;;;;22.90;40.40;;;;;;5089381;28;19939;-65
2022/01/06 10:44:14;;;;;;;;;;;22.90;40.50;;;;;;5090547;28;19934;-65
2022/01/06 10:46:43;;;;;;;;;;;23.00;40.40;;;;;;5076351;28;19981;-64
2022/01/06 10:49:09;;;;;;;;;;;22.90;40.30;;;;;;5089699;28;19934;-65
2022/01/06 10:51:38;;;;;;;;;;;23.00;40.50;;;;;;5073244;28;19916;-64
2022/01/06 10:54:03;;;;;;;;;;;22.90;40.50;;;;;;5091792;28;19916;-65
2022/01/06 10:56:29;;;;;;;;;;;23.00;40.60;;;;;;5093937;28;19919;-65
2022/01/06 10:58:58;;;;;;;;;;;23.00;40.80;;;;;;5093554;28;19947;-65
2022/01/06 11:01:23;;;;;;;;;;;23.00;40.90;;;;;;5093261;28;20011;-64
2022/01/06 11:03:49;;;;;;;;;;;23.10;41.20;;;;;;5092991;28;19999;-64
2022/01/06 11:06:14;;;;;;;;;;;23.10;41.30;;;;;;5077631;28;19958;-64
2022/01/06 11:08:41;;;;;;;;;;;23.10;41.50;;;;;;5078635;28;19926;-66
2022/01/06 11:13:41;;;;;;;;;;;23.10;41.30;;;;;;5092860;28;19919;-64
2022/01/06 11:16:07;;;;;;;;;;;23.10;41.40;;;;;;5092235;28;19950;-65
2022/01/06 11:18:33;;;;;;;;;;;23.10;41.30;;;;;;5092036;28;19924;-65
2022/01/06 11:21:05;;;;;;;;;;;23.10;41.40;;;;;;5090565;28;19935;-65
2022/01/06 11:23:31;;;;;;;;;;;23.20;41.50;;;;;;5082680;28;19912;-65
2022/01/06 11:26:13;;;;;;;;;;;23.20;41.50;;;;;;5085774;28;19998;-64
2022/01/06 11:28:39;;;;;;;;;;;23.20;41.60;;;;;;5087067;28;19913;-65
2022/01/06 11:31:21;;;;;;;;;;;23.20;41.70;;;;;;5082832;28;19916;-64
2022/01/06 11:33:47;;;;;;;;;;;23.20;41.60;;;;;;5089222;28;19924;-64
2022/01/06 11:36:25;;;;;;;;;;;23.10;41.60;;;;;;5105501;28;20333;-64
2022/01/06 11:38:51;;;;;;;;;;;23.20;41.70;;;;;;5090123;28;20388;-64
2022/01/06 11:41:16;;;;;;;;;;;23.20;41.60;;;;;;5125605;27;19908;-64
2022/01/06 11:43:42;;;;;;;;;;;23.20;41.60;;;;;;5092466;28;19919;-64
2022/01/06 11:46:08;;;;;;;;;;;23.10;41.60;;;;;;5092435;28;19909;-64
2022/01/06 11:48:44;;;;;;;;;;;23.10;41.60;;;;;;5091036;28;19916;-64
2022/01/06 11:51:09;;;;;;;;;;;23.20;41.70;;;;;;5092484;28;19912;-64
2022/01/06 11:53:35;;;;;;;;;;;23.20;41.60;;;;;;5089787;28;19908;-64
2022/01/06 11:56:10;;;;;;;;;;;23.20;41.60;;;;;;5092514;28;19912;-64
2022/01/06 11:58:36;;;;;;;;;;;23.20;41.60;;;;;;5096858;28;19915;-64
2022/01/06 12:01:05;;;;;;;;;;;23.20;41.60;;;;;;5133091;27;19916;-64
2022/01/06 12:03:34;;;;;;;;;;;23.20;41.50;;;;;;5091554;28;19912;-64
2022/01/06 12:05:59;;;;;;;;;;;23.30;41.50;;;;;;5075337;28;19913;-64
2022/01/06 12:08:34;;;;;;;;;;;23.30;41.50;;;;;;5070993;28;19930;-64
2022/01/06 12:11:00;;;;;;;;;;;23.30;41.40;;;;;;5071983;28;19999;-65
2022/01/06 12:13:25;;;;;;;;;;;23.30;41.40;;;;;;5071647;28;20355;-64
2022/01/06 12:15:55;;;;;;;;;;;23.30;41.30;;;;;;5071472;28;20145;-64
2022/01/06 12:18:24;;;;;;;;;;;23.30;41.30;;;;;;5081815;28;19942;-64
2022/01/06 12:20:50;;;;;;;;;;;23.30;41.40;;;;;;5082524;28;19919;-64
2022/01/06 12:23:16;;;;;;;;;;;23.30;41.30;;;;;;5080789;28;20288;-64
2022/01/06 12:25:41;;;;;;;;;;;23.30;41.30;;;;;;5081864;28;20223;-64
2022/01/06 12:28:10;;;;;;;;;;;23.30;41.30;;;;;;5081072;28;19912;-64
2022/01/06 12:30:37;;;;;;;;;;;23.30;41.30;;;;;;5076934;28;19989;-64
2022/01/06 12:33:03;;;;;;;;;;;23.30;41.20;;;;;;5078695;28;19916;-64
2022/01/06 12:35:38;;;;;;;;;;;23.30;41.10;;;;;;5094663;27;19958;-64
2022/01/06 12:38:03;;;;;;;;;;;23.30;41.20;;;;;;5080576;28;20362;-64
2022/01/06 12:40:36;;;;;;;;;;;23.40;41.10;;;;;;5080187;28;19916;-64
2022/01/06 12:43:18;;;;;;;;;;;23.30;41.70;;;;;;5081926;28;19946;-64
2022/01/06 12:45:43;;;;;;;;;;;23.40;41.20;;;;;;5082119;28;19916;-64
2022/01/06 12:48:09;;;;;;;;;;;23.30;41.10;;;;;;5079847;28;19920;-64
2022/01/06 12:50:45;;;;;;;;;;;23.40;41.20;;;;;;5080731;28;20337;-64
2022/01/06 12:53:10;;;;;;;;;;;23.40;41.10;;;;;;5080812;28;19920;-64
2022/01/06 12:55:42;;;;;;;;;;;23.30;41.10;;;;;;5082504;28;19938;-64
2022/01/06 12:58:08;;;;;;;;;;;23.40;41.20;;;;;;5084606;28;19931;-64
2022/01/06 13:00:33;;;;;;;;;;;23.40;41.20;;;;;;5077134;28;19916;-64
2022/01/06 13:03:04;;;;;;;;;;;23.40;41.30;;;;;;5081902;28;19916;-64
2022/01/06 13:05:30;;;;;;;;;;;23.40;41.30;;;;;;5091198;27;19963;-64
2022/01/06 13:08:02;;;;;;;;;;;23.40;41.20;;;;;;5080819;28;19948;-64
2022/01/06 13:10:28;;;;;;;;;;;23.30;41.10;;;;;;5081461;28;20010;-64
2022/01/06 13:13:01;;;;;;;;;;;23.40;41.20;;;;;;5081040;28;20026;-64
2022/01/06 13:15:31;;;;;;;;;;;23.40;41.20;;;;;;5085204;28;19962;-64
2022/01/06 13:17:57;;;;;;;;;;;23.40;41.10;;;;;;5080370;28;19920;-64
2022/01/06 13:20:22;;;;;;;;;;;23.30;41.00;;;;;;5081436;28;19961;-64
2022/01/06 13:25:23;;;;;;;;;;;23.40;41.10;;;;;;5085458;28;20359;-64
2022/01/06 13:28:05;;;;;;;;;;;23.40;41.20;;;;;;5081252;28;19918;-64
2022/01/06 13:30:31;;;;;;;;;;;23.40;41.10;;;;;;5079169;28;19965;-64
2022/01/06 13:32:56;;;;;;;;;;;23.40;41.90;;;;;;5079243;28;19912;-64
2022/01/06 13:35:22;;;;;;;;;;;23.30;41.20;;;;;;5081190;28;19916;-64
2022/01/06 13:37:47;;;;;;;;;;;23.30;41.20;;;;;;5078508;28;19962;-64
2022/01/06 13:40:13;;;;;;;;;;;23.30;41.20;;;;;;5080797;28;19963;-64
2022/01/06 13:42:39;;;;;;;;;;;23.30;41.10;;;;;;5080994;28;19920;-64
2022/01/06 13:45:11;;;;;;;;;;;23.30;41.20;;;;;;5080706;28;20478;-64
2022/01/06 13:47:54;;;;;;;;;;;23.40;41.20;;;;;;5087917;28;20299;-64
2022/01/06 13:53:28;;;;;;;;;;;23.40;41.20;;;;;;5083849;28;19938;-64
2022/01/06 13:55:56;;;;;;;;;;;23.40;41.10;;;;;;5083624;28;19917;-64
2022/01/06 13:58:22;;;;;;;;;;;23.40;41.00;;;;;;5080211;28;20046;-64
2022/01/06 14:00:50;;;;;;;;;;;23.40;40.80;;;;;;5084842;28;20380;-64
2022/01/06 14:03:15;;;;;;;;;;;23.40;40.80;;;;;;5081736;28;19912;-64
2022/01/06 14:05:42;;;;;;;;;;;23.40;40.70;;;;;;5083758;28;20427;-64
2022/01/06 14:08:07;;;;;;;;;;;23.40;40.60;;;;;;5082907;28;19985;-64
2022/01/06 14:10:33;;;;;;;;;;;23.40;40.60;;;;;;5085035;28;19916;-64
2022/01/06 14:12:58;;;;;;;;;;;23.40;40.60;;;;;;5082918;28;20367;-64
2022/01/06 14:15:24;;;;;;;;;;;23.40;40.70;;;;;;5082808;28;19920;-64
2022/01/06 14:17:49;;;;;;;;;;;23.40;40.70;;;;;;5084499;28;19931;-64
2022/01/06 14:20:14;;;;;;;;;;;23.40;41.30;;;;;;5084646;28;19920;-64
2022/01/06 14:22:40;;;;;;;;;;;23.40;40.80;;;;;;5083836;28;19916;-64
2022/01/06 14:25:05;;;;;;;;;;;23.40;40.70;;;;;;5083730;28;19927;-64
2022/01/06 14:27:31;;;;;;;;;;;23.40;40.60;;;;;;5080902;28;20015;-64
2022/01/06 14:29:57;;;;;;;;;;;23.40;40.60;;;;;;5082979;28;19912;-64